createdAt,value
2022-10-14T00:04:35.440Z,9.30
2022-10-14T00:09:37.460Z,9.30
2022-10-14T00:14:39.634Z,9.20
2022-10-14T00:19:41.450Z,9.20
2022-10-14T00:24:43.276Z,9.20
2022-10-14T00:29:45.100Z,9.20
2022-10-14T00:34:47.048Z,9.20
2022-10-14T00:39:51.367Z,9.20
2022-10-14T00:45:00.205Z,9.20
2022-10-14T00:50:02.263Z,9.20
2022-10-14T00:55:15.000Z,9.10
2022-10-14T01:00:19.187Z,9.10
2022-10-14T01:05:21.224Z,9.10
2022-10-14T01:10:45.174Z,9.10
2022-10-14T01:15:46.920Z,9.10
2022-10-14T01:20:54.689Z,9.10
2022-10-14T01:26:25.285Z,9.00
2022-10-14T01:31:32.113Z,9.00
2022-10-14T01:36:38.780Z,8.90
2022-10-14T01:41:44.797Z,8.90
2022-10-14T01:46:51.268Z,8.90
2022-10-14T01:51:57.890Z,8.90
2022-10-14T01:57:03.012Z,8.90
2022-10-14T02:02:04.869Z,9.00
2022-10-14T02:07:23.665Z,9.10
2022-10-14T02:12:39.216Z,9.10
2022-10-14T02:17:58.900Z,9.10
2022-10-14T02:23:06.704Z,9.20
2022-10-14T02:28:11.477Z,9.20
2022-10-14T02:33:14.185Z,9.30
2022-10-14T02:38:17.396Z,9.40
2022-10-14T02:43:19.385Z,9.40
2022-10-14T02:48:21.193Z,9.50
2022-10-14T02:53:23.016Z,9.50
2022-10-14T02:58:24.927Z,9.50
2022-10-14T03:03:26.926Z,9.50
2022-10-14T03:08:28.752Z,9.60
2022-10-14T03:13:30.709Z,9.60
2022-10-14T03:18:33.669Z,9.70
2022-10-14T03:23:35.728Z,9.70
2022-10-14T03:28:37.595Z,9.70
2022-10-14T03:33:39.473Z,9.70
2022-10-14T03:38:41.492Z,9.70
2022-10-14T03:43:43.350Z,9.80
2022-10-14T03:48:45.213Z,9.90
2022-10-14T03:53:47.101Z,10.00
2022-10-14T03:58:49.037Z,10.00
2022-10-14T04:04:00.447Z,10.00
2022-10-14T04:09:02.309Z,10.00
2022-10-14T04:14:04.305Z,10.00
2022-10-14T04:19:06.151Z,10.00
2022-10-14T04:24:08.607Z,10.00
2022-10-14T04:29:10.627Z,10.00
2022-10-14T04:34:12.698Z,10.10
2022-10-14T04:39:15.384Z,10.20
2022-10-14T04:44:17.261Z,10.10
2022-10-14T04:49:19.104Z,10.20
2022-10-14T04:54:20.973Z,10.20
2022-10-14T04:59:22.890Z,10.20
2022-10-14T05:04:24.888Z,10.20
2022-10-14T05:09:26.846Z,10.20
2022-10-14T05:14:29.618Z,10.20
2022-10-14T05:19:31.572Z,10.30
2022-10-14T05:24:34.567Z,10.30
2022-10-14T05:29:36.388Z,10.40
2022-10-14T05:34:38.249Z,10.40
2022-10-14T05:39:40.121Z,10.50
2022-10-14T05:44:41.963Z,10.50
2022-10-14T05:49:43.804Z,10.60
2022-10-14T05:54:45.633Z,10.60
2022-10-14T05:59:47.492Z,10.70
2022-10-14T06:04:49.489Z,10.80
2022-10-14T06:09:51.369Z,10.80
2022-10-14T06:14:53.323Z,10.90
2022-10-14T06:19:55.183Z,10.90
2022-10-14T06:25:00.508Z,10.90
2022-10-14T06:30:06.173Z,10.90
2022-10-14T06:35:08.490Z,10.90
2022-10-14T06:40:10.628Z,10.90
2022-10-14T06:45:12.597Z,11.00
2022-10-14T06:50:14.548Z,11.10
2022-10-14T06:55:16.833Z,11.20
2022-10-14T07:00:19.033Z,11.30
2022-10-14T07:05:21.276Z,11.30
2022-10-14T07:10:23.145Z,11.30
2022-10-14T07:15:25.051Z,11.20
2022-10-14T07:20:27.384Z,11.20
2022-10-14T07:25:29.254Z,11.30
2022-10-14T07:30:31.490Z,11.20
2022-10-14T07:35:33.356Z,11.30
2022-10-14T07:40:35.452Z,11.30
2022-10-14T07:45:41.014Z,11.30
2022-10-14T07:50:42.842Z,11.40
2022-10-14T07:55:52.151Z,11.40
2022-10-14T08:00:54.354Z,11.50
2022-10-14T08:06:03.053Z,11.60
2022-10-14T08:11:07.647Z,11.60
2022-10-14T08:16:18.584Z,11.80
2022-10-14T08:21:21.295Z,11.90
2022-10-14T08:26:24.198Z,12.10
2022-10-14T08:31:26.048Z,12.20
2022-10-14T08:36:27.954Z,12.20
2022-10-14T08:41:57.757Z,12.20
2022-10-14T08:47:11.525Z,12.20
2022-10-14T08:52:38.063Z,12.20
2022-10-14T08:57:52.592Z,12.20
2022-10-14T09:02:54.575Z,12.20
2022-10-14T09:07:57.330Z,12.30
2022-10-14T09:13:10.261Z,12.50
2022-10-14T09:18:45.607Z,12.50
2022-10-14T09:23:47.655Z,12.50
2022-10-14T09:28:54.324Z,12.50
2022-10-14T09:33:56.388Z,12.60
2022-10-14T09:39:02.289Z,12.70
2022-10-14T09:44:21.462Z,12.80
2022-10-14T09:49:34.421Z,12.90
2022-10-14T09:54:36.300Z,13.00
2022-10-14T09:59:50.576Z,13.00
2022-10-14T10:04:54.877Z,13.00
2022-10-14T10:10:00.092Z,13.00
2022-10-14T10:15:06.692Z,13.00
2022-10-14T10:20:19.415Z,13.10
2022-10-14T10:25:26.348Z,13.10
2022-10-14T10:30:32.316Z,13.10
2022-10-14T10:36:04.414Z,13.10
2022-10-14T10:41:12.381Z,13.10
2022-10-14T10:46:17.006Z,13.10
2022-10-14T10:51:40.739Z,13.30
2022-10-14T10:56:48.882Z,13.40
2022-10-14T11:02:04.370Z,13.50
2022-10-14T11:07:43.578Z,13.60
2022-10-14T11:12:45.430Z,13.60
2022-10-14T11:18:10.550Z,13.70
2022-10-14T11:23:34.805Z,13.90
2022-10-14T11:28:48.188Z,13.90
2022-10-14T11:34:08.598Z,14.10
2022-10-14T11:39:11.269Z,14.30
2022-10-14T11:44:25.378Z,14.40
2022-10-14T11:49:30.471Z,14.40
2022-10-14T11:54:45.143Z,14.50
2022-10-14T11:59:55.324Z,14.60
2022-10-14T12:05:07.523Z,14.70
2022-10-14T12:10:20.807Z,14.70
2022-10-14T12:15:27.630Z,14.70
2022-10-14T12:21:00.195Z,14.80
2022-10-14T12:26:20.342Z,14.70
2022-10-14T12:31:28.138Z,14.70
2022-10-14T12:36:33.363Z,14.70
2022-10-14T12:41:38.745Z,14.70
2022-10-14T12:46:45.223Z,14.70
2022-10-14T12:51:57.941Z,14.80
2022-10-14T12:57:25.530Z,14.80
2022-10-14T13:02:33.664Z,14.90
2022-10-14T13:07:44.350Z,15.00
2022-10-14T13:12:46.664Z,15.00
2022-10-14T13:17:57.929Z,15.10
2022-10-14T13:23:27.833Z,15.20
2022-10-14T13:28:36.043Z,15.20
2022-10-14T13:33:44.284Z,15.50
2022-10-14T13:38:55.291Z,15.70
2022-10-14T13:43:59.045Z,15.60
2022-10-14T13:49:03.468Z,15.60
2022-10-14T13:54:16.713Z,15.50
2022-10-14T13:59:43.127Z,15.60
2022-10-14T14:04:55.197Z,15.60
2022-10-14T14:10:01.616Z,15.50
2022-10-14T14:15:04.285Z,15.50
2022-10-14T14:20:10.904Z,15.40
2022-10-14T14:25:35.710Z,15.30
2022-10-14T14:30:39.596Z,15.30
2022-10-14T14:35:52.749Z,15.10
2022-10-14T14:41:05.923Z,15.10
2022-10-14T14:46:18.761Z,14.90
2022-10-14T14:51:21.036Z,14.90
2022-10-14T14:57:05.049Z,14.80
2022-10-14T15:02:16.665Z,14.80
2022-10-14T15:07:21.518Z,14.70
2022-10-14T15:12:34.060Z,14.70
2022-10-14T15:17:39.527Z,14.70
2022-10-14T15:22:43.572Z,14.70
2022-10-14T15:27:49.253Z,14.70
2022-10-14T15:32:52.801Z,14.60
2022-10-14T15:37:54.784Z,14.50
2022-10-14T15:42:56.915Z,14.40
2022-10-14T15:48:03.192Z,14.40
2022-10-14T15:53:09.244Z,14.30
2022-10-14T15:58:11.108Z,14.10
2022-10-14T16:03:13.637Z,14.00
2022-10-14T16:08:15.459Z,13.90
2022-10-14T16:13:17.281Z,13.80
2022-10-14T16:18:19.398Z,13.70
2022-10-14T16:23:26.197Z,13.60
2022-10-14T16:28:30.356Z,13.50
2022-10-14T16:33:32.642Z,13.40
2022-10-14T16:38:34.510Z,13.30
2022-10-14T16:43:36.728Z,13.30
2022-10-14T16:48:38.691Z,13.20
2022-10-14T16:53:40.562Z,13.10
2022-10-14T16:58:42.400Z,13.10
2022-10-14T17:03:44.217Z,13.00
2022-10-14T17:08:46.023Z,12.90
2022-10-14T17:13:52.210Z,12.80
2022-10-14T17:18:54.905Z,12.80
2022-10-14T17:24:03.551Z,12.70
2022-10-14T17:29:05.438Z,12.60
2022-10-14T17:34:07.625Z,12.50
2022-10-14T17:39:16.385Z,12.40
2022-10-14T17:44:23.511Z,12.30
2022-10-14T17:49:25.328Z,12.20
2022-10-14T17:54:27.181Z,12.10
2022-10-14T17:59:29.256Z,11.90
2022-10-14T18:04:32.733Z,11.80
2022-10-14T18:09:35.027Z,11.70
2022-10-14T18:14:37.699Z,11.60
2022-10-14T18:19:45.033Z,11.50
2022-10-14T18:24:50.318Z,11.50
2022-10-14T18:29:52.135Z,11.40
2022-10-14T18:34:54.265Z,11.30
2022-10-14T18:39:56.383Z,11.30
2022-10-14T18:44:59.169Z,11.40
2022-10-14T18:55:03.044Z,11.30
2022-10-14T19:00:08.351Z,11.40
2022-10-14T19:05:12.494Z,11.40
2022-10-14T19:10:14.360Z,11.50
2022-10-14T19:15:18.717Z,11.50
2022-10-14T19:20:20.907Z,11.50
2022-10-14T19:25:22.785Z,11.50
2022-10-14T19:30:25.289Z,11.60
2022-10-14T19:35:27.291Z,11.60
2022-10-14T19:40:29.087Z,11.50
2022-10-14T19:45:31.051Z,11.50
2022-10-14T19:50:34.612Z,11.50
2022-10-14T19:55:37.060Z,11.40
2022-10-14T20:00:39.005Z,11.40
2022-10-14T20:05:40.912Z,11.30
2022-10-14T20:10:42.707Z,11.20
2022-10-14T20:15:54.481Z,11.20
2022-10-14T20:20:56.955Z,11.20
2022-10-14T20:26:17.059Z,11.10
2022-10-14T20:31:20.657Z,11.00
2022-10-14T20:36:22.853Z,10.90
2022-10-14T20:41:26.550Z,10.90
2022-10-14T20:46:28.492Z,10.80
2022-10-14T20:51:30.458Z,10.80
2022-10-14T20:56:59.323Z,10.80
2022-10-14T21:02:06.732Z,10.80
2022-10-14T21:07:11.060Z,10.80
2022-10-14T21:12:12.976Z,10.90
2022-10-14T21:17:17.392Z,11.10
2022-10-14T21:22:19.331Z,11.20
2022-10-14T21:27:21.909Z,11.30
2022-10-14T21:32:26.943Z,11.30
2022-10-14T21:37:28.845Z,11.20
2022-10-14T21:42:30.699Z,11.10
2022-10-14T21:47:32.582Z,11.00
2022-10-14T21:52:34.912Z,10.90
2022-10-14T21:57:37.827Z,10.80
2022-10-14T22:02:39.656Z,10.70
2022-10-14T22:07:41.551Z,10.60
2022-10-14T22:12:44.061Z,10.60
2022-10-14T22:17:47.194Z,10.50
2022-10-14T22:22:49.133Z,10.40
2022-10-14T22:27:51.129Z,10.30
2022-10-14T22:32:53.067Z,10.20
2022-10-14T22:37:55.008Z,10.20
2022-10-14T22:42:56.808Z,10.10
2022-10-14T22:47:58.844Z,10.00
2022-10-14T22:53:00.659Z,10.00
2022-10-14T22:58:02.506Z,9.80
2022-10-14T23:03:04.531Z,9.80
2022-10-14T23:08:11.624Z,9.70
2022-10-14T23:13:13.495Z,9.70
2022-10-14T23:18:15.323Z,9.70
2022-10-14T23:23:17.190Z,9.70
2022-10-14T23:28:19.206Z,9.60
2022-10-14T23:33:21.074Z,9.50
2022-10-14T23:38:22.920Z,9.50
2022-10-14T23:43:24.874Z,9.40
2022-10-14T23:48:26.817Z,9.40
2022-10-14T23:53:29.157Z,9.40
2022-10-14T23:58:31.330Z,9.40
